Time;durP1;ratioP1;P1;durP2;ratioP2;P2;SDS_P1;SDS_P2;PMS_P1;PMS_P2;Temp;Humidity;BMP_temperature;BMP_pressure;BME280_temperature;BME280_humidity;BME280_pressure;Samples;Min_cycle;Max_cycle;Signal;HPM_P1;HPM_P2
2021/01/01 00:01:04;;;;;;;28.15;19.80;;;4.70;99.90;;;;;;4995602;28;20388;-78
2021/01/01 00:03:30;;;;;;;27.88;19.80;;;4.70;99.90;;;;;;4998316;28;20244;-79
2021/01/01 00:05:58;;;;;;;29.90;21.10;;;4.80;99.90;;;;;;4998602;28;20311;-78
2021/01/01 00:08:24;;;;;;;30.58;22.02;;;4.70;99.90;;;;;;5000293;28;20319;-79
2021/01/01 00:10:52;;;;;;;31.52;21.80;;;4.80;99.90;;;;;;4999834;28;20292;-79
2021/01/01 00:13:19;;;;;;;31.40;22.92;;;4.80;99.90;;;;;;4999849;28;20228;-79
2021/01/01 00:15:45;;;;;;;34.38;23.58;;;4.70;99.90;;;;;;5002092;28;20303;-79
2021/01/01 00:18:11;;;;;;;31.48;19.52;;;4.70;99.90;;;;;;5000134;28;20206;-79
2021/01/01 00:20:41;;;;;;;27.38;19.23;;;4.80;99.90;;;;;;4999827;28;20248;-79
2021/01/01 00:23:09;;;;;;;28.35;19.90;;;4.80;99.90;;;;;;5000895;28;20197;-80
2021/01/01 00:25:36;;;;;;;27.73;19.15;;;4.80;99.90;;;;;;5000785;28;20212;-81
2021/01/01 00:28:03;;;;;;;31.08;20.85;;;4.70;99.90;;;;;;4999150;28;20798;-80
2021/01/01 00:30:29;;;;;;;25.40;18.92;;;4.70;99.90;;;;;;4999011;28;20719;-80
2021/01/01 00:32:55;;;;;;;31.08;21.52;;;4.80;99.90;;;;;;4999627;28;20310;-79
2021/01/01 00:35:22;;;;;;;32.65;21.73;;;4.90;99.90;;;;;;5002155;28;20297;-79
2021/01/01 00:37:48;;;;;;;25.85;19.17;;;4.90;99.90;;;;;;5012295;28;20213;-79
2021/01/01 00:40:15;;;;;;;27.25;18.52;;;4.90;99.90;;;;;;5008866;28;20263;-80
2021/01/01 00:42:43;;;;;;;24.85;17.92;;;4.80;99.90;;;;;;5008512;28;20217;-79
2021/01/01 00:45:11;;;;;;;24.20;16.48;;;4.80;99.90;;;;;;5012512;28;20300;-80
2021/01/01 00:47:37;;;;;;;25.45;17.33;;;4.80;99.90;;;;;;5005674;28;20240;-80
2021/01/01 00:50:05;;;;;;;24.80;16.50;;;4.80;99.90;;;;;;5001713;28;20261;-80
2021/01/01 00:52:31;;;;;;;23.55;15.43;;;4.80;99.90;;;;;;5000620;28;20284;-82
2021/01/01 00:54:58;;;;;;;22.95;16.70;;;4.80;99.90;;;;;;5000163;28;20290;-81
2021/01/01 00:57:25;;;;;;;22.50;16.52;;;4.70;99.90;;;;;;5000531;28;20658;-80
2021/01/01 00:59:51;;;;;;;24.83;18.95;;;4.80;99.90;;;;;;5000848;28;20229;-81
2021/01/01 01:02:18;;;;;;;27.92;19.70;;;4.70;99.90;;;;;;5002553;28;20237;-80
2021/01/01 01:04:44;;;;;;;23.10;17.67;;;4.80;99.90;;;;;;5000941;28;20296;-79
2021/01/01 01:07:11;;;;;;;26.48;18.98;;;4.70;99.90;;;;;;5001308;28;20205;-80
2021/01/01 01:09:37;;;;;;;27.40;19.48;;;4.70;99.90;;;;;;5006206;28;20240;-79
2021/01/01 01:12:04;;;;;;;28.90;20.00;;;4.70;99.90;;;;;;5011922;28;20260;-81
2021/01/01 01:14:32;;;;;;;23.90;17.50;;;4.70;99.90;;;;;;5013590;28;20207;-80
2021/01/01 01:16:58;;;;;;;25.40;17.33;;;4.70;99.90;;;;;;5014104;28;20214;-79
2021/01/01 01:19:25;;;;;;;25.98;17.45;;;4.70;99.90;;;;;;5005321;28;20585;-81
2021/01/01 01:21:51;;;;;;;25.92;17.70;;;4.60;99.90;;;;;;4999095;28;20233;-79
2021/01/01 01:24:18;;;;;;;24.02;17.27;;;4.60;99.90;;;;;;4999302;28;20236;-79
2021/01/01 01:26:45;;;;;;;24.05;17.00;;;4.70;99.90;;;;;;4999574;28;20214;-79
2021/01/01 01:29:11;;;;;;;23.98;17.33;;;4.60;99.90;;;;;;5001733;28;20317;-81
2021/01/01 01:31:39;;;;;;;25.65;17.20;;;4.50;99.90;;;;;;4999272;28;20309;-78
2021/01/01 01:34:05;;;;;;;27.30;16.88;;;4.50;99.90;;;;;;5005136;28;20273;-77
2021/01/01 01:36:32;;;;;;;25.05;16.95;;;4.50;99.90;;;;;;5013004;28;20205;-78
2021/01/01 01:38:58;;;;;;;24.55;16.50;;;4.40;99.90;;;;;;4998178;28;20271;-77
2021/01/01 01:41:25;;;;;;;26.63;16.63;;;4.40;99.90;;;;;;4997124;28;20293;-78
2021/01/01 01:43:51;;;;;;;23.58;16.08;;;4.40;99.90;;;;;;4999612;28;20709;-78
2021/01/01 01:46:17;;;;;;;25.77;15.60;;;4.40;99.90;;;;;;4998792;28;20261;-79
2021/01/01 01:48:46;;;;;;;26.60;15.45;;;4.50;99.90;;;;;;4998738;28;20268;-78
2021/01/01 01:51:12;;;;;;;27.42;16.05;;;4.50;99.90;;;;;;4998471;28;20212;-78
2021/01/01 01:53:42;;;;;;;22.08;15.35;;;4.50;99.90;;;;;;4998229;28;20224;-78
2021/01/01 01:56:09;;;;;;;24.23;16.35;;;4.50;99.90;;;;;;4999467;28;20273;-78
2021/01/01 01:58:36;;;;;;;19.70;14.15;;;4.50;99.90;;;;;;5007657;28;20348;-77
2021/01/01 02:01:03;;;;;;;20.85;15.40;;;4.50;99.90;;;;;;5009916;28;20204;-79
2021/01/01 02:03:31;;;;;;;21.40;14.68;;;4.50;99.90;;;;;;5010438;28;20241;-79
2021/01/01 02:05:59;;;;;;;25.58;15.18;;;4.60;99.90;;;;;;5001327;28;20245;-79
2021/01/01 02:08:26;;;;;;;20.60;13.52;;;4.50;99.90;;;;;;5008074;28;20248;-77
2021/01/01 02:10:56;;;;;;;20.90;14.48;;;4.50;99.90;;;;;;5008197;28;20205;-80
2021/01/01 02:13:24;;;;;;;22.02;14.90;;;4.50;99.90;;;;;;5011634;28;20228;-77
2021/01/01 02:15:51;;;;;;;19.35;12.95;;;4.50;99.90;;;;;;5013960;28;20232;-78
2021/01/01 02:18:34;;;;;;;19.30;13.57;;;4.50;99.90;;;;;;5016066;28;20266;-78
2021/01/01 02:21:02;;;;;;;19.05;13.52;;;4.60;99.90;;;;;;5014759;28;20217;-76
2021/01/01 02:23:29;;;;;;;20.48;14.60;;;4.60;99.90;;;;;;5002366;28;20245;-77
2021/01/01 02:25:56;;;;;;;19.33;12.98;;;4.60;99.90;;;;;;5000030;28;20296;-78
2021/01/01 02:28:22;;;;;;;25.00;13.93;;;4.50;99.90;;;;;;5009076;28;20204;-76
2021/01/01 02:30:49;;;;;;;20.48;12.65;;;4.50;99.90;;;;;;5009917;28;20263;-77
2021/01/01 02:33:15;;;;;;;20.30;13.73;;;4.40;99.70;;;;;;5008174;28;20236;-77
2021/01/01 02:35:42;;;;;;;18.20;13.15;;;4.40;99.90;;;;;;5010105;28;20756;-77
2021/01/01 02:38:09;;;;;;;20.13;12.65;;;4.50;99.90;;;;;;5006781;28;20202;-77
2021/01/01 02:40:36;;;;;;;20.30;12.80;;;4.50;99.80;;;;;;5006679;28;20301;-77
2021/01/01 02:43:02;;;;;;;17.85;12.40;;;4.50;99.50;;;;;;5010774;28;20229;-78
2021/01/01 02:45:29;;;;;;;19.00;13.10;;;4.60;99.20;;;;;;5010087;28;20214;-77
2021/01/01 02:47:55;;;;;;;16.80;11.82;;;4.50;98.70;;;;;;5006130;28;20561;-78
2021/01/01 02:50:22;;;;;;;17.15;10.15;;;4.50;98.40;;;;;;5007415;28;20229;-78
2021/01/01 02:52:48;;;;;;;18.45;10.80;;;4.50;97.90;;;;;;5011684;28;20234;-77
2021/01/01 02:55:14;;;;;;;14.23;9.30;;;4.30;96.80;;;;;;5018606;28;20252;-77
2021/01/01 02:57:42;;;;;;;14.10;10.30;;;4.30;96.70;;;;;;5018001;28;20282;-77
2021/01/01 03:00:09;;;;;;;15.40;10.75;;;4.40;96.70;;;;;;5017816;28;20233;-78
2021/01/01 03:02:35;;;;;;;13.10;8.65;;;4.30;95.80;;;;;;5018450;28;20277;-77
2021/01/01 03:05:02;;;;;;;10.65;8.02;;;4.30;94.30;;;;;;5018274;28;20207;-76
2021/01/01 03:07:28;;;;;;;10.45;7.75;;;4.30;93.20;;;;;;5018300;28;20192;-77
2021/01/01 03:09:54;;;;;;;9.75;7.10;;;4.30;93.10;;;;;;5017595;28;20220;-78
2021/01/01 03:12:21;;;;;;;9.05;6.45;;;4.20;91.50;;;;;;5018333;28;20208;-77
2021/01/01 03:14:48;;;;;;;6.82;5.57;;;4.20;91.20;;;;;;5017995;28;20189;-77
2021/01/01 03:17:14;;;;;;;7.88;6.28;;;4.20;89.50;;;;;;5013423;28;20206;-78
2021/01/01 03:19:40;;;;;;;8.30;6.00;;;4.10;88.90;;;;;;5003321;28;20298;-79
2021/01/01 03:22:07;;;;;;;6.95;5.82;;;4.10;87.90;;;;;;5008196;28;20238;-78
2021/01/01 03:24:33;;;;;;;7.13;5.55;;;4.20;88.40;;;;;;5007901;28;20201;-79
2021/01/01 03:26:59;;;;;;;7.60;5.97;;;4.20;87.70;;;;;;5008384;28;20217;-78
2021/01/01 03:29:26;;;;;;;6.93;4.68;;;4.10;86.60;;;;;;4999310;28;20308;-79
2021/01/01 03:31:53;;;;;;;6.25;5.25;;;4.20;86.00;;;;;;4998655;28;20289;-77
2021/01/01 03:34:19;;;;;;;6.03;4.97;;;4.10;84.80;;;;;;5002567;28;20222;-78
2021/01/01 03:36:46;;;;;;;7.72;5.18;;;4.10;84.80;;;;;;5012445;28;20221;-78
2021/01/01 03:39:12;;;;;;;7.03;4.82;;;4.00;84.70;;;;;;5006863;28;20347;-78
2021/01/01 03:41:38;;;;;;;6.60;4.80;;;4.00;84.30;;;;;;5007112;28;20220;-77
2021/01/01 03:44:05;;;;;;;7.43;4.50;;;4.00;84.20;;;;;;4998836;28;20210;-79
2021/01/01 03:46:31;;;;;;;4.43;4.00;;;3.90;84.40;;;;;;5001013;28;20205;-79
2021/01/01 03:48:58;;;;;;;8.90;6.10;;;3.90;84.60;;;;;;5012251;28;20228;-78
2021/01/01 03:51:25;;;;;;;7.47;5.47;;;3.90;84.60;;;;;;5012605;28;20204;-79
2021/01/01 03:53:51;;;;;;;5.68;5.00;;;3.90;84.70;;;;;;5004227;28;20396;-78
2021/01/01 03:56:17;;;;;;;6.25;4.63;;;4.00;84.70;;;;;;5015694;28;20205;-77
2021/01/01 03:58:43;;;;;;;7.20;5.13;;;3.90;84.60;;;;;;5014125;28;20213;-78
2021/01/01 04:01:10;;;;;;;5.88;4.63;;;3.90;85.00;;;;;;4999681;28;20295;-78
2021/01/01 04:03:36;;;;;;;5.90;4.43;;;4.00;85.80;;;;;;5008946;28;20215;-77
2021/01/01 04:06:04;;;;;;;7.72;5.55;;;4.00;86.20;;;;;;5017182;28;20283;-77
2021/01/01 04:08:30;;;;;;;6.25;5.38;;;3.90;86.80;;;;;;5017321;28;20240;-77
2021/01/01 04:10:57;;;;;;;7.45;5.32;;;4.00;87.30;;;;;;5017344;28;20213;-77
2021/01/01 04:13:23;;;;;;;8.80;4.93;;;4.00;88.00;;;;;;5016613;28;20288;-78
2021/01/01 04:15:49;;;;;;;6.45;4.93;;;3.90;88.70;;;;;;5011727;28;20217;-77
2021/01/01 04:18:16;;;;;;;6.32;5.28;;;4.00;88.80;;;;;;5008955;28;20259;-79
2021/01/01 04:20:43;;;;;;;7.68;5.40;;;4.00;88.80;;;;;;5004622;28;20205;-77
2021/01/01 04:23:10;;;;;;;6.30;5.20;;;3.90;89.50;;;;;;5004624;28;20296;-78
2021/01/01 04:25:36;;;;;;;6.05;5.00;;;4.00;88.80;;;;;;5004510;28;20270;-78
2021/01/01 04:28:03;;;;;;;7.25;5.15;;;4.00;88.80;;;;;;5000267;28;20228;-77
2021/01/01 04:30:30;;;;;;;7.82;4.80;;;3.90;87.80;;;;;;5003870;28;20253;-78
2021/01/01 04:32:56;;;;;;;5.40;4.60;;;3.90;87.20;;;;;;5007226;28;20230;-78
2021/01/01 04:35:22;;;;;;;6.88;4.35;;;3.90;87.00;;;;;;5010132;28;20247;-79
2021/01/01 04:37:49;;;;;;;6.18;4.40;;;3.90;87.00;;;;;;5000992;28;20674;-78
2021/01/01 04:40:16;;;;;;;9.82;5.35;;;3.90;86.90;;;;;;4998046;28;20274;-77
2021/01/01 04:42:42;;;;;;;4.93;4.20;;;3.90;87.20;;;;;;5000038;28;20820;-78
2021/01/01 04:45:10;;;;;;;4.68;3.88;;;3.90;87.70;;;;;;4997622;28;20240;-81
2021/01/01 04:47:37;;;;;;;6.70;4.18;;;3.90;87.70;;;;;;5002811;28;20205;-77
2021/01/01 04:50:05;;;;;;;4.55;3.95;;;3.80;87.40;;;;;;5016791;28;20233;-77
2021/01/01 04:52:33;;;;;;;5.95;3.90;;;3.80;86.90;;;;;;5016434;28;20219;-77
2021/01/01 04:55:00;;;;;;;5.90;4.13;;;3.80;86.20;;;;;;5002779;28;20248;-79
2021/01/01 04:57:28;;;;;;;4.43;3.55;;;3.70;86.20;;;;;;5007334;28;20236;-77
2021/01/01 04:59:54;;;;;;;6.35;4.25;;;3.70;86.80;;;;;;5003418;28;20224;-79
2021/01/01 05:02:21;;;;;;;5.30;4.05;;;3.60;86.80;;;;;;4996393;28;20227;-79
2021/01/01 05:04:47;;;;;;;5.80;4.28;;;3.60;87.60;;;;;;4997710;28;20204;-79
2021/01/01 05:07:17;;;;;;;5.57;4.20;;;3.50;87.70;;;;;;4997475;28;20271;-78
2021/01/01 05:09:43;;;;;;;5.95;3.95;;;3.60;88.40;;;;;;4997464;28;20299;-78
2021/01/01 05:12:11;;;;;;;5.18;3.70;;;3.50;86.80;;;;;;4997353;28;20206;-78
2021/01/01 05:14:39;;;;;;;4.85;3.17;;;3.50;86.70;;;;;;5000525;28;20234;-78
2021/01/01 05:17:06;;;;;;;4.95;3.97;;;3.40;86.60;;;;;;4998140;28;20707;-78
2021/01/01 05:19:37;;;;;;;4.78;4.22;;;3.30;86.40;;;;;;4999409;28;20225;-78
2021/01/01 05:22:05;;;;;;;5.20;3.83;;;3.30;86.30;;;;;;4998058;28;20224;-77
2021/01/01 05:24:38;;;;;;;3.72;3.33;;;3.20;86.80;;;;;;4997961;28;20680;-78
2021/01/01 05:27:13;;;;;;;6.72;4.45;;;3.10;88.00;;;;;;4997233;28;20217;-78
2021/01/01 05:29:44;;;;;;;6.68;4.50;;;3.10;88.00;;;;;;4999621;28;20271;-79
2021/01/01 05:32:11;;;;;;;5.43;4.15;;;3.00;88.10;;;;;;4998803;28;20209;-78
2021/01/01 05:34:44;;;;;;;5.60;4.05;;;3.00;89.20;;;;;;5004314;28;20231;-78
2021/01/01 05:37:11;;;;;;;5.72;4.22;;;2.90;90.00;;;;;;5003629;28;20240;-78
2021/01/01 05:39:37;;;;;;;8.05;4.55;;;3.00;90.30;;;;;;5000752;28;20240;-79
2021/01/01 05:42:04;;;;;;;5.68;3.95;;;2.90;90.60;;;;;;5000713;28;20208;-79
2021/01/01 05:44:32;;;;;;;5.95;4.35;;;2.90;90.80;;;;;;5006650;28;20208;-78
2021/01/01 05:47:04;;;;;;;5.60;4.28;;;2.90;91.10;;;;;;5000427;28;20205;-77
2021/01/01 05:49:34;;;;;;;4.88;4.05;;;3.00;91.40;;;;;;5005934;28;20287;-77
2021/01/01 05:52:11;;;;;;;3.50;3.20;;;3.00;91.30;;;;;;5014074;28;20208;-77
2021/01/01 05:54:39;;;;;;;7.15;3.92;;;3.00;91.50;;;;;;5018355;28;20243;-78
2021/01/01 05:57:07;;;;;;;6.30;3.70;;;3.00;91.70;;;;;;5001065;28;20208;-78
2021/01/01 05:59:35;;;;;;;6.57;3.75;;;3.00;91.20;;;;;;5002615;28;20243;-79
2021/01/01 06:02:04;;;;;;;4.88;3.63;;;3.00;91.10;;;;;;4985286;28;20206;-78
2021/01/01 06:04:31;;;;;;;4.88;3.95;;;3.00;91.00;;;;;;4994525;28;20643;-79
2021/01/01 06:07:01;;;;;;;5.45;3.63;;;3.00;90.80;;;;;;5001540;28;20215;-79
2021/01/01 06:09:29;;;;;;;4.65;3.53;;;3.00;90.80;;;;;;5001774;28;20237;-80
2021/01/01 06:12:00;;;;;;;5.43;3.63;;;2.90;90.80;;;;;;5001397;28;20661;-79
2021/01/01 06:14:32;;;;;;;6.85;4.63;;;3.00;90.80;;;;;;5002112;28;20693;-79
2021/01/01 06:19:53;;;;;;;5.80;4.25;;;3.00;90.10;;;;;;5189017;27;20532;-78
2021/01/01 06:22:20;;;;;;;5.97;4.63;;;3.00;88.30;;;;;;5195402;27;20186;-78
2021/01/01 06:24:49;;;;;;;5.43;3.97;;;3.00;88.00;;;;;;5193212;27;20199;-77
2021/01/01 06:27:16;;;;;;;5.65;4.07;;;2.90;87.80;;;;;;5193358;27;20239;-78
2021/01/01 06:29:45;;;;;;;7.50;4.85;;;2.90;88.20;;;;;;5182051;27;20292;-80
2021/01/01 06:32:12;;;;;;;6.90;5.10;;;2.90;89.10;;;;;;5157105;27;20704;-81
2021/01/01 06:34:38;;;;;;;6.18;5.03;;;2.90;89.50;;;;;;5165643;27;20553;-80
2021/01/01 06:37:06;;;;;;;5.43;4.45;;;2.80;89.90;;;;;;5176709;27;20202;-81
2021/01/01 06:39:41;;;;;;;5.97;4.90;;;2.90;90.10;;;;;;5175752;27;20233;-80
2021/01/01 06:42:08;;;;;;;5.47;4.57;;;2.80;90.20;;;;;;5176904;27;20647;-81
2021/01/01 06:44:40;;;;;;;6.80;5.22;;;2.90;90.50;;;;;;5177699;27;20281;-80
2021/01/01 06:47:10;;;;;;;6.93;4.65;;;2.90;90.50;;;;;;5187538;27;20203;-82
2021/01/01 06:49:39;;;;;;;5.72;4.20;;;2.90;90.30;;;;;;5172207;27;20211;-80
2021/01/01 06:52:16;;;;;;;7.15;5.10;;;2.90;90.40;;;;;;5164026;27;20204;-80
2021/01/01 06:54:57;;;;;;;7.93;5.45;;;2.90;90.90;;;;;;5163902;27;20213;-81
2021/01/01 06:57:25;;;;;;;9.10;5.20;;;2.90;90.90;;;;;;5155312;27;20203;-80
2021/01/01 06:59:52;;;;;;;7.78;5.32;;;2.90;90.80;;;;;;5154204;27;20721;-80
2021/01/01 07:02:26;;;;;;;8.77;5.68;;;2.90;90.80;;;;;;5169195;27;20213;-81
2021/01/01 07:04:53;;;;;;;6.85;4.70;;;2.90;90.80;;;;;;5179005;27;20202;-81
2021/01/01 07:07:40;;;;;;;8.38;6.18;;;2.90;90.80;;;;;;5182308;27;20199;-79
2021/01/01 07:10:08;;;;;;;8.55;6.00;;;2.80;91.00;;;;;;5189009;27;20302;-80
2021/01/01 07:12:35;;;;;;;9.25;6.80;;;2.70;91.00;;;;;;5170747;27;20219;-79
2021/01/01 07:15:01;;;;;;;7.93;5.93;;;2.70;91.30;;;;;;5166836;27;20208;-79
2021/01/01 07:17:46;;;;;;;8.40;6.22;;;2.80;91.60;;;;;;5166497;27;20199;-79
2021/01/01 07:20:13;;;;;;;11.20;7.38;;;2.80;91.70;;;;;;5170293;27;20246;-80
2021/01/01 07:22:40;;;;;;;9.68;6.20;;;2.80;91.90;;;;;;5156575;27;20207;-79
2021/01/01 07:25:08;;;;;;;10.02;6.10;;;2.90;91.60;;;;;;5153487;27;20590;-79
2021/01/01 07:27:36;;;;;;;8.73;6.85;;;2.90;91.40;;;;;;5165895;27;20206;-81
2021/01/01 07:30:11;;;;;;;9.98;7.05;;;3.00;91.20;;;;;;5167646;27;20725;-79
2021/01/01 07:32:38;;;;;;;9.45;7.32;;;2.90;90.80;;;;;;5147402;27;20199;-81
2021/01/01 07:35:08;;;;;;;9.82;7.43;;;2.90;90.80;;;;;;5140212;27;20199;-81
2021/01/01 07:37:37;;;;;;;11.30;7.10;;;3.00;90.50;;;;;;5154680;27;20199;-81
2021/01/01 07:40:06;;;;;;;8.65;6.43;;;3.00;90.50;;;;;;5164792;27;20230;-79
2021/01/01 07:42:46;;;;;;;8.52;6.57;;;3.00;90.30;;;;;;5161847;27;20195;-81
2021/01/01 07:45:13;;;;;;;8.43;6.28;;;3.00;90.30;;;;;;5163992;27;20238;-80
2021/01/01 07:47:42;;;;;;;9.48;7.10;;;3.00;90.40;;;;;;5161844;27;20215;-80
2021/01/01 07:50:13;;;;;;;10.07;6.97;;;3.00;90.30;;;;;;5162700;27;20230;-79
2021/01/01 07:52:39;;;;;;;11.38;7.32;;;3.00;90.60;;;;;;5169082;27;20230;-79
2021/01/01 07:55:07;;;;;;;11.80;7.72;;;3.00;90.50;;;;;;5174122;27;20211;-80
2021/01/01 07:57:36;;;;;;;9.93;6.45;;;3.00;90.70;;;;;;5173172;27;20196;-80
2021/01/01 08:00:04;;;;;;;10.52;7.40;;;3.10;90.50;;;;;;5170702;27;20531;-80
2021/01/01 08:02:31;;;;;;;10.65;6.68;;;3.10;90.30;;;;;;5159569;27;20200;-80
2021/01/01 08:04:58;;;;;;;10.38;6.80;;;3.20;89.80;;;;;;5144658;27;20585;-80
2021/01/01 08:07:25;;;;;;;13.00;7.90;;;3.30;88.80;;;;;;5150356;27;20207;-80
2021/01/01 08:09:51;;;;;;;8.88;6.80;;;3.30;88.20;;;;;;5150725;27;20211;-81
2021/01/01 08:12:18;;;;;;;11.65;7.63;;;3.30;88.20;;;;;;5165161;27;20240;-81
2021/01/01 08:14:48;;;;;;;12.65;6.88;;;3.30;88.00;;;;;;5125540;28;20235;-80
2021/01/01 08:17:22;;;;;;;10.73;7.10;;;3.40;86.80;;;;;;5144357;27;20231;-80
2021/01/01 08:19:48;;;;;;;10.32;7.40;;;3.40;86.40;;;;;;5149493;27;20335;-81
2021/01/01 08:22:22;;;;;;;9.18;7.25;;;3.40;85.80;;;;;;5164358;27;20255;-80
2021/01/01 08:24:54;;;;;;;12.05;8.05;;;3.40;86.10;;;;;;5156571;27;20235;-80
2021/01/01 08:27:21;;;;;;;11.82;7.40;;;3.40;85.60;;;;;;5165717;27;20191;-80
2021/01/01 08:29:49;;;;;;;10.02;7.38;;;3.40;84.90;;;;;;5174939;27;20244;-80
2021/01/01 08:32:17;;;;;;;12.43;7.72;;;3.40;84.90;;;;;;5152837;27;20215;-80
2021/01/01 08:34:47;;;;;;;11.98;7.50;;;3.40;84.70;;;;;;5141333;27;20605;-80
2021/01/01 08:37:25;;;;;;;14.07;8.27;;;3.50;85.00;;;;;;5140464;27;20233;-79
2021/01/01 08:40:01;;;;;;;13.77;8.35;;;3.60;84.40;;;;;;5153479;27;20586;-78
2021/01/01 08:42:33;;;;;;;10.82;7.43;;;3.60;84.00;;;;;;5178365;27;20221;-80
2021/01/01 08:45:00;;;;;;;12.48;7.95;;;3.60;83.90;;;;;;5178670;27;20234;-80
2021/01/01 08:47:40;;;;;;;13.30;7.85;;;3.60;83.80;;;;;;5179249;27;20184;-79
2021/01/01 08:50:21;;;;;;;12.02;7.18;;;3.60;83.20;;;;;;5169221;27;20219;-79
2021/01/01 08:52:49;;;;;;;11.52;8.05;;;3.60;83.10;;;;;;5158848;27;20184;-80
2021/01/01 08:55:16;;;;;;;12.85;8.88;;;3.60;83.10;;;;;;5168482;27;20176;-79
2021/01/01 08:57:43;;;;;;;12.55;7.53;;;3.50;82.60;;;;;;5179255;27;20213;-79
2021/01/01 09:00:10;;;;;;;11.85;8.15;;;3.60;83.00;;;;;;5169348;27;20271;-78
2021/01/01 09:02:37;;;;;;;12.52;8.70;;;3.50;82.40;;;;;;5154253;27;20210;-80
2021/01/01 09:05:05;;;;;;;12.80;8.95;;;3.50;82.40;;;;;;5153089;27;20199;-80
2021/01/01 09:07:32;;;;;;;13.23;8.88;;;3.50;83.20;;;;;;5170794;27;20250;-80
2021/01/01 09:10:17;;;;;;;15.55;8.10;;;3.50;83.30;;;;;;5169815;27;20219;-80
2021/01/01 09:12:44;;;;;;;14.50;9.00;;;3.50;83.70;;;;;;5171021;27;20221;-80
2021/01/01 09:15:12;;;;;;;14.50;9.57;;;3.50;83.70;;;;;;5168187;27;20214;-80
2021/01/01 09:17:38;;;;;;;14.23;8.27;;;3.50;83.90;;;;;;5149769;27;20211;-80
2021/01/01 09:20:06;;;;;;;13.25;8.10;;;3.50;84.30;;;;;;5151111;27;20247;-81
2021/01/01 09:22:34;;;;;;;14.73;9.48;;;3.50;84.30;;;;;;5155312;27;20222;-80
2021/01/01 09:25:20;;;;;;;15.45;9.40;;;3.50;84.30;;;;;;5158235;27;20212;-79
2021/01/01 09:27:48;;;;;;;13.00;8.40;;;3.40;84.20;;;;;;5135232;28;20226;-81
2021/01/01 09:30:16;;;;;;;14.93;9.38;;;3.30;84.80;;;;;;5133618;27;20305;-81
2021/01/01 09:32:44;;;;;;;16.25;9.52;;;3.50;88.30;;;;;;5142969;27;20207;-82
2021/01/01 09:35:12;;;;;;;16.90;10.23;;;3.50;88.40;;;;;;5139101;27;20315;-82
2021/01/01 09:37:38;;;;;;;13.85;8.95;;;3.50;88.40;;;;;;5151903;27;20725;-80
2021/01/01 09:40:05;;;;;;;15.00;9.50;;;3.50;88.40;;;;;;5143237;27;20215;-82
2021/01/01 09:42:32;;;;;;;15.48;9.23;;;3.50;88.40;;;;;;5165412;27;20210;-81
2021/01/01 09:44:59;;;;;;;17.13;10.70;;;3.40;88.30;;;;;;5173811;27;20254;-81
2021/01/01 09:47:25;;;;;;;15.15;9.25;;;3.50;88.40;;;;;;5161861;27;20271;-82
2021/01/01 09:49:52;;;;;;;14.00;9.25;;;3.50;88.40;;;;;;5160982;27;20237;-81
2021/01/01 09:52:18;;;;;;;15.85;10.38;;;3.50;88.40;;;;;;5143186;27;20214;-82
2021/01/01 09:54:44;;;;;;;16.63;10.00;;;3.50;88.40;;;;;;5139634;27;20200;-81
2021/01/01 09:57:11;;;;;;;17.58;11.05;;;3.60;88.50;;;;;;5139128;27;20675;-81
2021/01/01 09:59:37;;;;;;;18.48;10.23;;;3.50;88.30;;;;;;5090210;27;20277;-82
2021/01/01 10:02:05;;;;;;;16.48;10.35;;;3.60;88.40;;;;;;5078440;28;20210;-82
2021/01/01 10:04:31;;;;;;;18.73;11.93;;;3.60;88.40;;;;;;5080333;28;20213;-82
2021/01/01 10:06:57;;;;;;;16.48;10.52;;;3.60;88.40;;;;;;5080434;28;20238;-81
2021/01/01 10:09:25;;;;;;;17.70;9.85;;;3.70;87.90;;;;;;5081169;28;20225;-81
2021/01/01 10:11:51;;;;;;;17.17;9.68;;;3.70;87.20;;;;;;5082561;28;20270;-82
2021/01/01 10:14:18;;;;;;;16.42;9.60;;;3.70;87.50;;;;;;5082500;28;20202;-80
2021/01/01 10:16:47;;;;;;;18.83;10.27;;;3.70;86.70;;;;;;5088629;28;20207;-81
2021/01/01 10:19:15;;;;;;;16.80;9.43;;;3.70;87.20;;;;;;5070505;28;20241;-82
2021/01/01 10:21:41;;;;;;;17.98;11.07;;;3.70;86.20;;;;;;5066161;28;20184;-82
2021/01/01 10:24:08;;;;;;;16.60;10.68;;;3.80;86.40;;;;;;5088910;28;20203;-82
2021/01/01 10:26:34;;;;;;;17.00;10.40;;;4.00;86.90;;;;;;5088103;28;20229;-80
2021/01/01 10:29:00;;;;;;;18.13;9.98;;;4.10;85.20;;;;;;5084214;28;20330;-82
2021/01/01 10:31:27;;;;;;;16.77;10.20;;;4.30;83.80;;;;;;5079667;28;20283;-82
2021/01/01 10:33:53;;;;;;;17.67;10.52;;;4.40;81.40;;;;;;5078361;28;20206;-81
2021/01/01 10:36:21;;;;;;;16.73;10.85;;;4.50;81.00;;;;;;5077550;28;20706;-82
2021/01/01 10:38:47;;;;;;;17.20;11.07;;;4.70;79.50;;;;;;5078083;28;20226;-82
2021/01/01 10:41:14;;;;;;;16.17;10.48;;;4.80;78.00;;;;;;5066673;28;20222;-82
2021/01/01 10:43:41;;;;;;;18.23;11.90;;;5.00;75.30;;;;;;5077026;28;20237;-83
2021/01/01 10:46:08;;;;;;;17.77;11.00;;;5.10;73.90;;;;;;5077407;28;20304;-79
2021/01/01 10:48:34;;;;;;;15.73;10.30;;;5.10;73.10;;;;;;5061018;28;20266;-80
2021/01/01 10:51:01;;;;;;;15.68;10.00;;;5.20;73.20;;;;;;5061519;28;20273;-80
2021/01/01 10:53:28;;;;;;;16.33;9.63;;;5.20;73.00;;;;;;5083815;28;20196;-80
2021/01/01 10:55:54;;;;;;;14.20;9.70;;;5.30;71.20;;;;;;5094188;28;20203;-81
2021/01/01 10:58:25;;;;;;;17.80;10.63;;;5.50;71.10;;;;;;5094824;28;20242;-80
2021/01/01 11:00:51;;;;;;;16.50;10.50;;;5.30;69.80;;;;;;5092923;28;20264;-83
2021/01/01 11:03:18;;;;;;;14.18;10.07;;;5.40;70.00;;;;;;5090850;28;20207;-80
2021/01/01 11:05:44;;;;;;;17.58;10.27;;;5.20;69.30;;;;;;5097308;28;20247;-82
2021/01/01 11:08:11;;;;;;;17.35;10.75;;;5.10;70.40;;;;;;5098775;28;20194;-82
2021/01/01 11:10:38;;;;;;;18.23;11.48;;;5.20;70.50;;;;;;5094730;28;20244;-80
2021/01/01 11:13:06;;;;;;;19.13;10.43;;;5.30;71.40;;;;;;5084196;28;20207;-80
2021/01/01 12:19:52;;;;;;;14.65;9.90;;;6.10;65.20;;;;;;5082389;28;20266;-78
2021/01/01 12:22:20;;;;;;;15.68;9.70;;;6.10;65.20;;;;;;5062156;28;20200;-79
2021/01/01 12:24:47;;;;;;;17.10;11.25;;;6.10;64.60;;;;;;5078805;28;20332;-79
2021/01/01 12:27:16;;;;;;;13.30;8.95;;;6.10;64.50;;;;;;5072252;28;20222;-79
2021/01/01 12:29:43;;;;;;;14.38;9.73;;;6.10;64.00;;;;;;5058334;28;20251;-77
2021/01/01 12:32:12;;;;;;;14.00;9.82;;;6.10;63.00;;;;;;5058184;28;20650;-79
2021/01/01 12:34:38;;;;;;;14.13;9.15;;;6.00;63.00;;;;;;5057084;28;20196;-80
2021/01/01 12:37:05;;;;;;;14.35;8.93;;;5.90;63.60;;;;;;5056965;28;20235;-80
2021/01/01 12:39:31;;;;;;;18.73;9.73;;;5.90;63.30;;;;;;5057940;28;20301;-81
2021/01/01 12:41:58;;;;;;;13.95;9.30;;;5.90;63.60;;;;;;5063351;28;20200;-80
2021/01/01 12:44:24;;;;;;;14.00;10.10;;;5.90;62.70;;;;;;5087900;28;20211;-78
2021/01/01 12:46:51;;;;;;;14.30;9.00;;;5.90;62.40;;;;;;5095400;28;20203;-78
2021/01/01 12:49:19;;;;;;;11.15;8.52;;;5.90;63.40;;;;;;5095155;28;20361;-79
2021/01/01 12:51:49;;;;;;;16.38;10.15;;;5.80;63.40;;;;;;5094532;28;20297;-78
2021/01/01 12:54:15;;;;;;;12.95;8.80;;;6.00;63.20;;;;;;5095479;28;20180;-81
2021/01/01 12:56:42;;;;;;;13.45;8.90;;;6.20;60.20;;;;;;5091257;28;20203;-78
2021/01/01 12:59:08;;;;;;;15.27;8.32;;;6.20;59.00;;;;;;5068041;28;20318;-79
2021/01/01 13:01:35;;;;;;;13.48;8.55;;;6.20;58.90;;;;;;5062889;28;20216;-79
2021/01/01 13:04:02;;;;;;;14.27;9.45;;;6.40;58.90;;;;;;5079696;28;20227;-78
2021/01/01 13:06:30;;;;;;;13.50;9.27;;;6.40;58.10;;;;;;5080353;28;20745;-79
2021/01/01 13:08:57;;;;;;;15.73;9.18;;;6.40;58.30;;;;;;5081575;28;20318;-79
2021/01/01 13:11:25;;;;;;;13.55;9.55;;;6.40;58.20;;;;;;5081204;28;20244;-79
2021/01/01 13:13:52;;;;;;;14.70;9.32;;;6.30;58.20;;;;;;5084248;28;20276;-79
2021/01/01 13:16:22;;;;;;;16.17;9.88;;;6.30;58.10;;;;;;5082994;28;20230;-79
2021/01/01 13:18:49;;;;;;;14.13;8.80;;;6.10;57.90;;;;;;5078762;28;20597;-79
2021/01/01 13:21:29;;;;;;;15.32;9.82;;;6.10;57.90;;;;;;5082723;28;20271;-79
2021/01/01 13:23:56;;;;;;;14.55;9.00;;;6.10;58.50;;;;;;5063408;28;20182;-81
2021/01/01 13:26:24;;;;;;;12.07;9.35;;;5.90;58.90;;;;;;5070985;28;20207;-79
2021/01/01 13:28:52;;;;;;;14.57;9.27;;;5.90;58.90;;;;;;5080518;28;20314;-78
2021/01/01 13:31:19;;;;;;;15.30;9.85;;;5.80;59.50;;;;;;5076121;28;20274;-78
2021/01/01 13:33:46;;;;;;;12.70;8.27;;;5.70;60.10;;;;;;5074320;28;20200;-77
2021/01/01 13:36:16;;;;;;;13.75;9.23;;;5.80;60.40;;;;;;5076634;28;20219;-78
2021/01/01 13:38:44;;;;;;;14.15;9.75;;;5.80;60.00;;;;;;5076970;28;20255;-78
2021/01/01 13:41:11;;;;;;;14.50;9.90;;;5.70;60.50;;;;;;5079855;28;20196;-77
2021/01/01 13:43:41;;;;;;;15.07;10.48;;;5.70;60.50;;;;;;5083451;28;20263;-77
2021/01/01 13:46:08;;;;;;;17.48;9.80;;;5.70;60.80;;;;;;5082463;28;20248;-78
2021/01/01 13:48:34;;;;;;;12.70;8.85;;;5.70;60.50;;;;;;5077682;28;20229;-79
2021/01/01 13:51:01;;;;;;;18.13;11.00;;;5.70;60.50;;;;;;5078466;28;20205;-78
2021/01/01 13:53:27;;;;;;;15.02;9.75;;;5.70;60.50;;;;;;5082730;28;20226;-79
2021/01/01 13:55:54;;;;;;;15.18;9.02;;;5.60;60.60;;;;;;5083906;28;20214;-78
2021/01/01 13:58:21;;;;;;;15.32;9.20;;;5.40;61.10;;;;;;5079081;28;20297;-77